Portada
METAR-TAF:

METAR-TAF

Aeroports :

Mikkeli, Finlàndia

latitud: 61-44N, longitud: 027-18E, altitud: 138 m

Observació

L'informe es va fer fa 43 minuts, a les 07:20 UTC
Vent 3 kt amb direcció variable
Temperatura 19°C
Humitat 73%
Pressió 1013 hPa
Visibilitat 10 km o més
Escasses núvols a una alçada de 2100 ft
Cel cobert a una alçada de 9100 ft

METAR: EFMI 200720Z AUTO VRB03KT 9999 FEW021 OVC091 19/14 Q1013

Hora: 11:03 (08:03 UTC)


TAF: manca

Observacions i pronòstics meteorològics de més de 4000 aeroports (METAR i TAF).

Les estacions disponibles són els punts grocs i vermells al mapa.

Posi el ratolí al punt desitjat per veure el nom de l'estació.

Feu clic per veure les observacions i els pronòstics meteorològics.

Per canviar el mapa: feu clic els botons verds amb una creu de color negre per apropar; al botó verd amb un guió per allunyar la imatge; o en les fletxes verdes per a mapes adjacents.


METAR-TAF: